sensor_id;sensor_type;location;lat;lon;timestamp;P1;durP1;ratioP1;P2;durP2;ratioP2
27983;SDS011;15317;50.360;8.726;2023-10-09T00:04:43;5.07;;;3.53;;
27983;SDS011;15317;50.360;8.726;2023-10-09T00:09:49;5.37;;;3.83;;
27983;SDS011;15317;50.360;8.726;2023-10-09T00:14:53;5.43;;;3.53;;
27983;SDS011;15317;50.360;8.726;2023-10-09T00:19:58;3.63;;;3.33;;
27983;SDS011;15317;50.360;8.726;2023-10-09T00:25:11;5.60;;;3.80;;
27983;SDS011;15317;50.360;8.726;2023-10-09T00:30:16;4.23;;;3.40;;
27983;SDS011;15317;50.360;8.726;2023-10-09T00:35:21;4.67;;;3.80;;
27983;SDS011;15317;50.360;8.726;2023-10-09T00:40:50;4.73;;;4.00;;
27983;SDS011;15317;50.360;8.726;2023-10-09T00:46:05;4.47;;;3.87;;
27983;SDS011;15317;50.360;8.726;2023-10-09T00:51:14;5.17;;;4.07;;
27983;SDS011;15317;50.360;8.726;2023-10-09T00:56:22;7.03;;;3.90;;
27983;SDS011;15317;50.360;8.726;2023-10-09T01:01:40;7.67;;;3.53;;
27983;SDS011;15317;50.360;8.726;2023-10-09T01:06:50;7.43;;;3.87;;
27983;SDS011;15317;50.360;8.726;2023-10-09T01:12:09;4.13;;;3.37;;
27983;SDS011;15317;50.360;8.726;2023-10-09T01:17:19;5.10;;;3.43;;
27983;SDS011;15317;50.360;8.726;2023-10-09T01:22:37;5.40;;;3.60;;
27983;SDS011;15317;50.360;8.726;2023-10-09T01:27:42;3.77;;;3.13;;
27983;SDS011;15317;50.360;8.726;2023-10-09T01:32:45;4.43;;;3.90;;
27983;SDS011;15317;50.360;8.726;2023-10-09T01:37:50;5.53;;;4.17;;
27983;SDS011;15317;50.360;8.726;2023-10-09T01:42:55;5.03;;;3.97;;
27983;SDS011;15317;50.360;8.726;2023-10-09T01:47:58;5.23;;;4.03;;
27983;SDS011;15317;50.360;8.726;2023-10-09T01:53:06;6.17;;;4.10;;
27983;SDS011;15317;50.360;8.726;2023-10-09T01:58:11;7.33;;;4.23;;
27983;SDS011;15317;50.360;8.726;2023-10-09T02:03:26;5.53;;;3.93;;
27983;SDS011;15317;50.360;8.726;2023-10-09T02:08:31;7.83;;;4.57;;
27983;SDS011;15317;50.360;8.726;2023-10-09T02:13:39;6.60;;;4.73;;
27983;SDS011;15317;50.360;8.726;2023-10-09T02:18:44;5.30;;;4.57;;
27983;SDS011;15317;50.360;8.726;2023-10-09T02:23:56;4.33;;;3.90;;
27983;SDS011;15317;50.360;8.726;2023-10-09T02:29:02;5.00;;;4.50;;
27983;SDS011;15317;50.360;8.726;2023-10-09T02:34:16;6.87;;;4.90;;
27983;SDS011;15317;50.360;8.726;2023-10-09T02:39:23;5.57;;;4.50;;
27983;SDS011;15317;50.360;8.726;2023-10-09T02:44:30;5.60;;;4.70;;
27983;SDS011;15317;50.360;8.726;2023-10-09T02:49:37;6.57;;;4.90;;
27983;SDS011;15317;50.360;8.726;2023-10-09T02:54:41;6.87;;;5.00;;
27983;SDS011;15317;50.360;8.726;2023-10-09T02:59:49;5.70;;;4.37;;
27983;SDS011;15317;50.360;8.726;2023-10-09T03:04:54;5.37;;;4.87;;
27983;SDS011;15317;50.360;8.726;2023-10-09T03:09:58;5.10;;;4.60;;
27983;SDS011;15317;50.360;8.726;2023-10-09T03:15:02;6.37;;;5.10;;
27983;SDS011;15317;50.360;8.726;2023-10-09T03:20:10;7.33;;;6.20;;
27983;SDS011;15317;50.360;8.726;2023-10-09T03:25:15;9.00;;;7.27;;
27983;SDS011;15317;50.360;8.726;2023-10-09T03:30:21;9.10;;;8.20;;
27983;SDS011;15317;50.360;8.726;2023-10-09T03:35:26;11.00;;;8.40;;
27983;SDS011;15317;50.360;8.726;2023-10-09T03:40:30;9.63;;;7.43;;
27983;SDS011;15317;50.360;8.726;2023-10-09T03:45:35;12.27;;;8.87;;
27983;SDS011;15317;50.360;8.726;2023-10-09T03:50:41;9.27;;;8.37;;
27983;SDS011;15317;50.360;8.726;2023-10-09T03:55:45;12.23;;;9.90;;
27983;SDS011;15317;50.360;8.726;2023-10-09T04:00:49;12.00;;;10.43;;
27983;SDS011;15317;50.360;8.726;2023-10-09T04:05:54;13.03;;;10.03;;
27983;SDS011;15317;50.360;8.726;2023-10-09T04:10:57;11.47;;;10.27;;
27983;SDS011;15317;50.360;8.726;2023-10-09T04:16:07;12.73;;;10.70;;
27983;SDS011;15317;50.360;8.726;2023-10-09T04:21:30;11.50;;;9.17;;
27983;SDS011;15317;50.360;8.726;2023-10-09T04:26:37;11.93;;;9.30;;
27983;SDS011;15317;50.360;8.726;2023-10-09T04:31:47;12.50;;;11.30;;
27983;SDS011;15317;50.360;8.726;2023-10-09T04:36:54;14.13;;;11.93;;
27983;SDS011;15317;50.360;8.726;2023-10-09T04:42:02;13.47;;;12.07;;
27983;SDS011;15317;50.360;8.726;2023-10-09T04:47:25;15.60;;;13.17;;
27983;SDS011;15317;50.360;8.726;2023-10-09T04:52:37;16.60;;;12.93;;
27983;SDS011;15317;50.360;8.726;2023-10-09T04:57:55;15.93;;;12.77;;
27983;SDS011;15317;50.360;8.726;2023-10-09T05:03:12;15.43;;;11.90;;
27983;SDS011;15317;50.360;8.726;2023-10-09T05:08:27;16.13;;;11.70;;
27983;SDS011;15317;50.360;8.726;2023-10-09T05:13:35;13.47;;;11.70;;
27983;SDS011;15317;50.360;8.726;2023-10-09T05:18:46;16.50;;;12.23;;
27983;SDS011;15317;50.360;8.726;2023-10-09T05:23:58;12.83;;;10.70;;
27983;SDS011;15317;50.360;8.726;2023-10-09T05:29:17;12.87;;;10.97;;
27983;SDS011;15317;50.360;8.726;2023-10-09T05:34:38;13.80;;;11.03;;
27983;SDS011;15317;50.360;8.726;2023-10-09T05:40:04;12.00;;;10.67;;
27983;SDS011;15317;50.360;8.726;2023-10-09T05:45:25;13.67;;;11.00;;
27983;SDS011;15317;50.360;8.726;2023-10-09T05:50:49;14.80;;;11.90;;
27983;SDS011;15317;50.360;8.726;2023-10-09T05:56:06;13.70;;;11.17;;
27983;SDS011;15317;50.360;8.726;2023-10-09T06:01:29;15.27;;;10.40;;
27983;SDS011;15317;50.360;8.726;2023-10-09T06:06:52;14.33;;;12.20;;
27983;SDS011;15317;50.360;8.726;2023-10-09T06:11:58;16.03;;;12.60;;
27983;SDS011;15317;50.360;8.726;2023-10-09T06:17:34;27.07;;;14.70;;
27983;SDS011;15317;50.360;8.726;2023-10-09T06:22:47;18.13;;;13.53;;
27983;SDS011;15317;50.360;8.726;2023-10-09T06:28:00;18.97;;;14.33;;
27983;SDS011;15317;50.360;8.726;2023-10-09T06:33:04;16.03;;;13.83;;
27983;SDS011;15317;50.360;8.726;2023-10-09T06:38:23;16.30;;;13.60;;
27983;SDS011;15317;50.360;8.726;2023-10-09T06:43:35;16.10;;;14.10;;
27983;SDS011;15317;50.360;8.726;2023-10-09T06:48:49;17.93;;;15.00;;
27983;SDS011;15317;50.360;8.726;2023-10-09T06:54:00;19.30;;;15.63;;
27983;SDS011;15317;50.360;8.726;2023-10-09T06:59:09;17.33;;;15.33;;
27983;SDS011;15317;50.360;8.726;2023-10-09T07:04:19;16.83;;;14.03;;
27983;SDS011;15317;50.360;8.726;2023-10-09T07:09:44;18.60;;;15.27;;
27983;SDS011;15317;50.360;8.726;2023-10-09T07:15:08;18.33;;;15.70;;
27983;SDS011;15317;50.360;8.726;2023-10-09T07:20:29;18.67;;;15.33;;
27983;SDS011;15317;50.360;8.726;2023-10-09T07:25:48;19.67;;;16.03;;
27983;SDS011;15317;50.360;8.726;2023-10-09T07:31:00;20.77;;;16.17;;
27983;SDS011;15317;50.360;8.726;2023-10-09T07:36:04;19.83;;;17.17;;
27983;SDS011;15317;50.360;8.726;2023-10-09T07:41:11;23.07;;;19.33;;
27983;SDS011;15317;50.360;8.726;2023-10-09T07:46:34;22.20;;;17.63;;
27983;SDS011;15317;50.360;8.726;2023-10-09T07:51:54;19.77;;;17.73;;
27983;SDS011;15317;50.360;8.726;2023-10-09T07:57:01;18.47;;;16.13;;
27983;SDS011;15317;50.360;8.726;2023-10-09T08:02:18;18.93;;;16.90;;
27983;SDS011;15317;50.360;8.726;2023-10-09T08:07:21;19.17;;;14.97;;
27983;SDS011;15317;50.360;8.726;2023-10-09T08:12:48;18.67;;;16.10;;
27983;SDS011;15317;50.360;8.726;2023-10-09T08:18:01;19.00;;;17.13;;
27983;SDS011;15317;50.360;8.726;2023-10-09T08:23:12;19.53;;;17.53;;
27983;SDS011;15317;50.360;8.726;2023-10-09T08:28:25;21.83;;;18.57;;
27983;SDS011;15317;50.360;8.726;2023-10-09T08:33:45;24.67;;;19.87;;
27983;SDS011;15317;50.360;8.726;2023-10-09T08:39:01;24.67;;;21.17;;
27983;SDS011;15317;50.360;8.726;2023-10-09T08:44:20;22.20;;;19.60;;
27983;SDS011;15317;50.360;8.726;2023-10-09T08:49:27;22.43;;;20.20;;
27983;SDS011;15317;50.360;8.726;2023-10-09T08:54:32;21.17;;;19.00;;
27983;SDS011;15317;50.360;8.726;2023-10-09T08:59:41;21.17;;;16.63;;
27983;SDS011;15317;50.360;8.726;2023-10-09T09:04:48;20.23;;;17.00;;
27983;SDS011;15317;50.360;8.726;2023-10-09T09:09:55;20.20;;;16.30;;
27983;SDS011;15317;50.360;8.726;2023-10-09T09:15:05;19.30;;;15.60;;
27983;SDS011;15317;50.360;8.726;2023-10-09T09:20:21;17.23;;;15.43;;
27983;SDS011;15317;50.360;8.726;2023-10-09T09:25:38;19.00;;;15.13;;
27983;SDS011;15317;50.360;8.726;2023-10-09T09:30:47;16.47;;;14.00;;
27983;SDS011;15317;50.360;8.726;2023-10-09T09:35:56;18.73;;;13.57;;
27983;SDS011;15317;50.360;8.726;2023-10-09T09:41:00;15.70;;;12.60;;
27983;SDS011;15317;50.360;8.726;2023-10-09T09:46:10;14.20;;;12.00;;
27983;SDS011;15317;50.360;8.726;2023-10-09T09:51:15;14.10;;;12.07;;
27983;SDS011;15317;50.360;8.726;2023-10-09T09:56:19;16.77;;;13.23;;
27983;SDS011;15317;50.360;8.726;2023-10-09T10:01:25;18.27;;;13.13;;
27983;SDS011;15317;50.360;8.726;2023-10-09T10:06:33;17.03;;;13.20;;
27983;SDS011;15317;50.360;8.726;2023-10-09T10:11:44;18.00;;;13.27;;
27983;SDS011;15317;50.360;8.726;2023-10-09T10:17:02;15.77;;;13.77;;
27983;SDS011;15317;50.360;8.726;2023-10-09T10:22:23;23.50;;;14.40;;
27983;SDS011;15317;50.360;8.726;2023-10-09T10:27:29;14.07;;;12.60;;
27983;SDS011;15317;50.360;8.726;2023-10-09T10:37:58;12.73;;;10.60;;
27983;SDS011;15317;50.360;8.726;2023-10-09T10:43:14;15.50;;;10.20;;
27983;SDS011;15317;50.360;8.726;2023-10-09T10:48:35;12.23;;;10.43;;
27983;SDS011;15317;50.360;8.726;2023-10-09T10:53:50;11.70;;;9.90;;
27983;SDS011;15317;50.360;8.726;2023-10-09T10:58:55;11.30;;;9.37;;
27983;SDS011;15317;50.360;8.726;2023-10-09T11:04:13;11.37;;;8.73;;
27983;SDS011;15317;50.360;8.726;2023-10-09T11:09:26;16.83;;;9.00;;
27983;SDS011;15317;50.360;8.726;2023-10-09T11:14:53;11.53;;;9.13;;
27983;SDS011;15317;50.360;8.726;2023-10-09T11:20:12;13.13;;;9.40;;
27983;SDS011;15317;50.360;8.726;2023-10-09T11:25:27;12.07;;;8.80;;
27983;SDS011;15317;50.360;8.726;2023-10-09T11:30:32;12.20;;;9.00;;
27983;SDS011;15317;50.360;8.726;2023-10-09T11:35:37;14.50;;;8.53;;
27983;SDS011;15317;50.360;8.726;2023-10-09T11:40:40;15.80;;;8.90;;
27983;SDS011;15317;50.360;8.726;2023-10-09T11:46:09;12.27;;;8.13;;
27983;SDS011;15317;50.360;8.726;2023-10-09T11:51:17;16.80;;;8.97;;
27983;SDS011;15317;50.360;8.726;2023-10-09T11:56:23;12.10;;;8.60;;
27983;SDS011;15317;50.360;8.726;2023-10-09T12:01:29;12.43;;;8.07;;
27983;SDS011;15317;50.360;8.726;2023-10-09T12:06:38;13.70;;;8.20;;
27983;SDS011;15317;50.360;8.726;2023-10-09T12:11:44;14.03;;;8.17;;
27983;SDS011;15317;50.360;8.726;2023-10-09T12:17:04;15.77;;;8.47;;
27983;SDS011;15317;50.360;8.726;2023-10-09T12:22:09;11.43;;;8.20;;
27983;SDS011;15317;50.360;8.726;2023-10-09T12:27:17;9.77;;;7.30;;
27983;SDS011;15317;50.360;8.726;2023-10-09T12:32:22;12.90;;;7.67;;
27983;SDS011;15317;50.360;8.726;2023-10-09T12:37:27;11.77;;;8.00;;
27983;SDS011;15317;50.360;8.726;2023-10-09T12:42:33;10.80;;;7.30;;
27983;SDS011;15317;50.360;8.726;2023-10-09T12:47:36;15.40;;;8.13;;
27983;SDS011;15317;50.360;8.726;2023-10-09T12:52:41;10.33;;;7.33;;
27983;SDS011;15317;50.360;8.726;2023-10-09T12:57:44;11.90;;;7.07;;
27983;SDS011;15317;50.360;8.726;2023-10-09T13:02:49;12.20;;;7.83;;
27983;SDS011;15317;50.360;8.726;2023-10-09T13:07:54;12.97;;;7.77;;
27983;SDS011;15317;50.360;8.726;2023-10-09T13:12:58;12.13;;;8.00;;
27983;SDS011;15317;50.360;8.726;2023-10-09T13:18:02;12.23;;;7.70;;
27983;SDS011;15317;50.360;8.726;2023-10-09T13:23:10;12.07;;;6.67;;
27983;SDS011;15317;50.360;8.726;2023-10-09T13:28:16;11.07;;;7.10;;
27983;SDS011;15317;50.360;8.726;2023-10-09T13:33:22;13.50;;;6.77;;
27983;SDS011;15317;50.360;8.726;2023-10-09T13:38:27;15.70;;;7.07;;
27983;SDS011;15317;50.360;8.726;2023-10-09T13:43:31;12.17;;;6.83;;
27983;SDS011;15317;50.360;8.726;2023-10-09T13:48:35;10.27;;;6.90;;
27983;SDS011;15317;50.360;8.726;2023-10-09T13:53:44;12.30;;;6.33;;
27983;SDS011;15317;50.360;8.726;2023-10-09T13:58:48;12.90;;;7.35;;
27983;SDS011;15317;50.360;8.726;2023-10-09T14:03:56;8.93;;;6.63;;
27983;SDS011;15317;50.360;8.726;2023-10-09T14:09:02;12.35;;;7.05;;
27983;SDS011;15317;50.360;8.726;2023-10-09T14:14:07;15.07;;;6.70;;
27983;SDS011;15317;50.360;8.726;2023-10-09T14:19:12;10.27;;;7.68;;
27983;SDS011;15317;50.360;8.726;2023-10-09T14:24:17;12.53;;;9.10;;
27983;SDS011;15317;50.360;8.726;2023-10-09T14:29:21;11.17;;;8.20;;
27983;SDS011;15317;50.360;8.726;2023-10-09T14:34:28;11.27;;;8.20;;
27983;SDS011;15317;50.360;8.726;2023-10-09T14:39:35;10.48;;;7.63;;
27983;SDS011;15317;50.360;8.726;2023-10-09T14:44:39;9.37;;;7.13;;
27983;SDS011;15317;50.360;8.726;2023-10-09T14:49:42;9.73;;;6.53;;
27983;SDS011;15317;50.360;8.726;2023-10-09T14:54:50;14.90;;;6.90;;
27983;SDS011;15317;50.360;8.726;2023-10-09T14:59:53;7.57;;;6.20;;
27983;SDS011;15317;50.360;8.726;2023-10-09T15:04:56;8.07;;;5.97;;
27983;SDS011;15317;50.360;8.726;2023-10-09T15:10:01;7.43;;;5.90;;
27983;SDS011;15317;50.360;8.726;2023-10-09T15:15:06;7.73;;;6.17;;
27983;SDS011;15317;50.360;8.726;2023-10-09T15:20:13;7.33;;;5.73;;
27983;SDS011;15317;50.360;8.726;2023-10-09T15:25:18;9.03;;;6.00;;
27983;SDS011;15317;50.360;8.726;2023-10-09T15:30:21;8.27;;;6.40;;
27983;SDS011;15317;50.360;8.726;2023-10-09T15:35:26;8.80;;;5.90;;
27983;SDS011;15317;50.360;8.726;2023-10-09T15:40:33;9.33;;;5.93;;
27983;SDS011;15317;50.360;8.726;2023-10-09T15:45:39;7.43;;;6.33;;
27983;SDS011;15317;50.360;8.726;2023-10-09T15:50:45;7.07;;;5.70;;
27983;SDS011;15317;50.360;8.726;2023-10-09T15:55:51;6.40;;;5.80;;
27983;SDS011;15317;50.360;8.726;2023-10-09T16:00:59;7.83;;;5.83;;
27983;SDS011;15317;50.360;8.726;2023-10-09T16:06:03;7.83;;;6.03;;
27983;SDS011;15317;50.360;8.726;2023-10-09T16:11:08;9.67;;;5.77;;
27983;SDS011;15317;50.360;8.726;2023-10-09T16:16:23;7.53;;;6.03;;
27983;SDS011;15317;50.360;8.726;2023-10-09T16:21:27;6.20;;;5.60;;
27983;SDS011;15317;50.360;8.726;2023-10-09T16:26:32;6.50;;;5.87;;
27983;SDS011;15317;50.360;8.726;2023-10-09T16:31:41;7.30;;;6.30;;
27983;SDS011;15317;50.360;8.726;2023-10-09T16:36:44;7.63;;;5.53;;
27983;SDS011;15317;50.360;8.726;2023-10-09T16:41:49;7.63;;;5.40;;
27983;SDS011;15317;50.360;8.726;2023-10-09T16:46:52;7.23;;;5.70;;
27983;SDS011;15317;50.360;8.726;2023-10-09T16:51:56;7.07;;;6.00;;
27983;SDS011;15317;50.360;8.726;2023-10-09T16:57:01;5.93;;;5.33;;
27983;SDS011;15317;50.360;8.726;2023-10-09T17:02:06;7.77;;;6.00;;
27983;SDS011;15317;50.360;8.726;2023-10-09T17:07:15;7.03;;;5.80;;
27983;SDS011;15317;50.360;8.726;2023-10-09T17:12:20;6.83;;;5.73;;
27983;SDS011;15317;50.360;8.726;2023-10-09T17:17:23;9.10;;;6.20;;
27983;SDS011;15317;50.360;8.726;2023-10-09T17:22:26;7.57;;;6.07;;
27983;SDS011;15317;50.360;8.726;2023-10-09T17:27:31;5.87;;;5.10;;
27983;SDS011;15317;50.360;8.726;2023-10-09T17:32:34;7.60;;;6.30;;
27983;SDS011;15317;50.360;8.726;2023-10-09T17:37:39;8.00;;;5.67;;
27983;SDS011;15317;50.360;8.726;2023-10-09T17:42:45;8.97;;;6.07;;
27983;SDS011;15317;50.360;8.726;2023-10-09T17:47:48;6.30;;;5.70;;
27983;SDS011;15317;50.360;8.726;2023-10-09T17:52:55;7.17;;;6.07;;
27983;SDS011;15317;50.360;8.726;2023-10-09T17:58:02;7.20;;;6.00;;
27983;SDS011;15317;50.360;8.726;2023-10-09T18:03:08;6.83;;;5.87;;
27983;SDS011;15317;50.360;8.726;2023-10-09T18:08:13;6.50;;;5.30;;
27983;SDS011;15317;50.360;8.726;2023-10-09T18:13:18;6.53;;;5.90;;
27983;SDS011;15317;50.360;8.726;2023-10-09T18:18:22;7.87;;;6.53;;
27983;SDS011;15317;50.360;8.726;2023-10-09T18:23:26;7.73;;;6.00;;
27983;SDS011;15317;50.360;8.726;2023-10-09T18:28:32;6.80;;;6.20;;
27983;SDS011;15317;50.360;8.726;2023-10-09T18:33:38;8.43;;;6.50;;
27983;SDS011;15317;50.360;8.726;2023-10-09T18:38:42;7.33;;;6.53;;
27983;SDS011;15317;50.360;8.726;2023-10-09T18:43:48;7.70;;;6.73;;
27983;SDS011;15317;50.360;8.726;2023-10-09T18:48:51;9.37;;;6.30;;
27983;SDS011;15317;50.360;8.726;2023-10-09T18:53:55;9.63;;;6.37;;
27983;SDS011;15317;50.360;8.726;2023-10-09T18:59:04;7.00;;;6.30;;
27983;SDS011;15317;50.360;8.726;2023-10-09T19:04:09;7.70;;;6.67;;
27983;SDS011;15317;50.360;8.726;2023-10-09T19:09:14;7.10;;;6.27;;
27983;SDS011;15317;50.360;8.726;2023-10-09T19:14:23;8.63;;;6.23;;
27983;SDS011;15317;50.360;8.726;2023-10-09T19:19:27;8.87;;;6.40;;
27983;SDS011;15317;50.360;8.726;2023-10-09T19:24:30;7.57;;;6.10;;
27983;SDS011;15317;50.360;8.726;2023-10-09T19:29:35;7.20;;;6.50;;
27983;SDS011;15317;50.360;8.726;2023-10-09T19:34:38;8.80;;;6.63;;
27983;SDS011;15317;50.360;8.726;2023-10-09T19:39:41;7.67;;;6.47;;
27983;SDS011;15317;50.360;8.726;2023-10-09T19:44:46;6.83;;;5.93;;
27983;SDS011;15317;50.360;8.726;2023-10-09T19:49:49;7.47;;;6.37;;
27983;SDS011;15317;50.360;8.726;2023-10-09T19:54:52;9.57;;;6.80;;
27983;SDS011;15317;50.360;8.726;2023-10-09T19:59:58;8.47;;;6.77;;
27983;SDS011;15317;50.360;8.726;2023-10-09T20:05:02;6.93;;;6.20;;
27983;SDS011;15317;50.360;8.726;2023-10-09T20:10:06;8.93;;;7.20;;
27983;SDS011;15317;50.360;8.726;2023-10-09T20:15:11;9.30;;;6.90;;
27983;SDS011;15317;50.360;8.726;2023-10-09T20:20:15;8.93;;;8.13;;
27983;SDS011;15317;50.360;8.726;2023-10-09T20:25:24;10.10;;;8.93;;
27983;SDS011;15317;50.360;8.726;2023-10-09T20:30:33;9.00;;;8.10;;
27983;SDS011;15317;50.360;8.726;2023-10-09T20:35:36;10.83;;;9.53;;
27983;SDS011;15317;50.360;8.726;2023-10-09T20:40:43;10.23;;;9.20;;
27983;SDS011;15317;50.360;8.726;2023-10-09T20:45:48;10.33;;;9.23;;
27983;SDS011;15317;50.360;8.726;2023-10-09T20:50:51;10.10;;;9.17;;
27983;SDS011;15317;50.360;8.726;2023-10-09T20:55:54;9.17;;;8.27;;
27983;SDS011;15317;50.360;8.726;2023-10-09T21:00:59;13.03;;;8.87;;
27983;SDS011;15317;50.360;8.726;2023-10-09T21:06:03;9.67;;;8.70;;
27983;SDS011;15317;50.360;8.726;2023-10-09T21:11:07;13.93;;;9.97;;
27983;SDS011;15317;50.360;8.726;2023-10-09T21:16:14;10.53;;;9.23;;
27983;SDS011;15317;50.360;8.726;2023-10-09T21:21:18;9.80;;;8.57;;
27983;SDS011;15317;50.360;8.726;2023-10-09T21:26:22;10.00;;;8.23;;
27983;SDS011;15317;50.360;8.726;2023-10-09T21:31:27;11.27;;;8.60;;
27983;SDS011;15317;50.360;8.726;2023-10-09T21:36:30;9.30;;;8.33;;
27983;SDS011;15317;50.360;8.726;2023-10-09T21:41:33;8.67;;;7.70;;
27983;SDS011;15317;50.360;8.726;2023-10-09T21:46:38;8.90;;;7.87;;
27983;SDS011;15317;50.360;8.726;2023-10-09T21:51:41;12.47;;;7.80;;
27983;SDS011;15317;50.360;8.726;2023-10-09T21:56:44;11.77;;;8.30;;
27983;SDS011;15317;50.360;8.726;2023-10-09T22:01:50;9.43;;;7.80;;
27983;SDS011;15317;50.360;8.726;2023-10-09T22:06:54;9.30;;;8.17;;
27983;SDS011;15317;50.360;8.726;2023-10-09T22:11:57;10.53;;;8.77;;
27983;SDS011;15317;50.360;8.726;2023-10-09T22:17:02;9.87;;;8.37;;
27983;SDS011;15317;50.360;8.726;2023-10-09T22:22:05;11.33;;;8.90;;
27983;SDS011;15317;50.360;8.726;2023-10-09T22:27:12;10.90;;;8.63;;
27983;SDS011;15317;50.360;8.726;2023-10-09T22:32:21;14.67;;;9.70;;
27983;SDS011;15317;50.360;8.726;2023-10-09T22:37:29;10.27;;;9.03;;
27983;SDS011;15317;50.360;8.726;2023-10-09T22:42:33;10.03;;;9.03;;
27983;SDS011;15317;50.360;8.726;2023-10-09T22:47:39;13.97;;;10.50;;
27983;SDS011;15317;50.360;8.726;2023-10-09T22:52:44;11.67;;;9.23;;
27983;SDS011;15317;50.360;8.726;2023-10-09T22:57:48;13.00;;;9.63;;
27983;SDS011;15317;50.360;8.726;2023-10-09T23:02:58;11.73;;;9.10;;
27983;SDS011;15317;50.360;8.726;2023-10-09T23:08:01;10.57;;;9.47;;
27983;SDS011;15317;50.360;8.726;2023-10-09T23:13:06;10.47;;;8.77;;
27983;SDS011;15317;50.360;8.726;2023-10-09T23:18:18;12.13;;;9.60;;
27983;SDS011;15317;50.360;8.726;2023-10-09T23:23:35;11.57;;;10.10;;
27983;SDS011;15317;50.360;8.726;2023-10-09T23:28:42;11.30;;;10.10;;
27983;SDS011;15317;50.360;8.726;2023-10-09T23:33:54;13.33;;;10.70;;
27983;SDS011;15317;50.360;8.726;2023-10-09T23:38:58;13.17;;;10.30;;
27983;SDS011;15317;50.360;8.726;2023-10-09T23:44:15;11.00;;;9.90;;
27983;SDS011;15317;50.360;8.726;2023-10-09T23:49:23;12.90;;;11.20;;
27983;SDS011;15317;50.360;8.726;2023-10-09T23:54:27;14.37;;;11.13;;
27983;SDS011;15317;50.360;8.726;2023-10-09T23:59:30;12.13;;;10.73;;
